»·PEaware :: N3539W KDEW-KELN

N3539W :: KDEW-KELN

FLIGHT INFORMATION

Flight Status: Arrived
Operator: Privately registered:
United States
More flights under this callsign
Pilot: Joerg P. (23850)
Aircraft: PIPER PA-32 SARATOGA
(PA32)
More flights by this aircraft type
Origin: KDEW Deer Park
United States
Destination: KELN Bowers
United States
More flights between these airports :: More routes between these airports
Route: +GEG V2 ELN
File this flight plan on PilotEdge
Remarks:
Altitude:
(Current/Filed)
6,000ft
Speed:
(Current/Filed)
130kts
Departed: 16-Oct-20 06:43 PM
Arrived: 16-Oct-20 08:07 PM
Distance/Time
Traveled:
138nm/1:23
Distance/Time
To Go:
Arrived

Flight Plot

Page will automatically refresh every two minutes.

Flight plan parsing failed; only flown route is shown


Map Options




Map Legend


Flown Route
Filed Route
Departure Airport
Arrival Airport
Navaid (VOR, NDB)
Fix

Horizontal Profiles

Position Reports

Time Latitude Longitude Heading Altitude Ground
Speed
16-Oct-20 18:38 47.967065 -117.433538 352 2203ft 27kts
16-Oct-20 18:40 47.967010 -117.432967 93 2203ft 5kts
16-Oct-20 18:41 47.967110 -117.422241 92 2192ft 27kts
16-Oct-20 18:42 47.966157 -117.418326 245 2186ft 0kts
16-Oct-20 18:43 47.955949 -117.443240 226 2638ft 89kts
16-Oct-20 18:44 47.930831 -117.438692 161 3417ft 103kts
16-Oct-20 18:45 47.912916 -117.412428 127 3854ft 123kts
16-Oct-20 18:46 47.912916 -117.412428 127 3854ft 123kts
16-Oct-20 18:47 47.912608 -117.411612 128 3871ft 123kts
16-Oct-20 18:48 47.891159 -117.375127 159 4494ft 116kts
16-Oct-20 18:49 47.864764 -117.364942 197 5137ft 93kts
16-Oct-20 18:50 47.843188 -117.378603 215 5724ft 81kts
16-Oct-20 18:51 47.819377 -117.391277 213 6055ft 102kts
16-Oct-20 18:52 47.789509 -117.407079 213 5948ft 114kts
16-Oct-20 18:53 47.763474 -117.430536 219 5987ft 108kts
16-Oct-20 18:54 47.738743 -117.455648 228 5982ft 106kts
16-Oct-20 18:55 47.721191 -117.489102 235 6058ft 100kts
16-Oct-20 18:56 47.694601 -117.509435 212 5965ft 116kts
16-Oct-20 18:57 47.665242 -117.527561 216 5951ft 110kts
16-Oct-20 18:58 47.639159 -117.551381 225 5895ft 109kts
16-Oct-20 18:58 47.619530 -117.573871 226 5959ft 105kts
16-Oct-20 18:59 47.596574 -117.602351 222 5936ft 107kts
16-Oct-20 19:00 47.567473 -117.619935 213 5870ft 115kts
16-Oct-20 19:01 47.554260 -117.656519 255 5910ft 103kts
16-Oct-20 19:02 47.550905 -117.697717 262 6127ft 96kts
16-Oct-20 19:03 47.539153 -117.731572 240 6291ft 96kts
16-Oct-20 19:04 47.532808 -117.774760 259 6023ft 109kts
16-Oct-20 19:05 47.530191 -117.826402 259 5217ft 101kts
16-Oct-20 19:06 47.528872 -117.842951 256 5577ft 84kts
16-Oct-20 19:07 47.528872 -117.842951 256 5577ft 84kts
16-Oct-20 19:08 47.527388 -117.864070 262 5897ft 83kts
16-Oct-20 19:09 47.521119 -117.899373 249 6056ft 98kts
16-Oct-20 19:10 47.507488 -117.936081 250 6026ft 106kts
16-Oct-20 19:11 47.499386 -117.978095 250 6046ft 102kts
16-Oct-20 19:12 47.492768 -118.020888 256 5957ft 107kts
16-Oct-20 19:13 47.487702 -118.064798 256 5947ft 107kts
16-Oct-20 19:14 47.482166 -118.107997 242 5922ft 109kts
16-Oct-20 19:15 47.467099 -118.146852 243 5898ft 111kts
16-Oct-20 19:16 47.455564 -118.186448 248 6105ft 102kts
16-Oct-20 19:17 47.439118 -118.224173 244 5982ft 113kts
16-Oct-20 19:18 47.432378 -118.267907 260 6184ft 99kts
16-Oct-20 19:19 47.428296 -118.305589 251 6792ft 89kts
16-Oct-20 19:20 47.421649 -118.340931 257 7289ft 90kts
16-Oct-20 19:21 47.418286 -118.378206 267 7710ft 102kts
16-Oct-20 19:22 47.412044 -118.420883 260 8047ft 116kts
16-Oct-20 19:23 47.405417 -118.470073 248 7999ft 133kts
16-Oct-20 19:24 47.386710 -118.517754 246 7965ft 134kts
16-Oct-20 19:25 47.371959 -118.567219 252 7973ft 132kts
16-Oct-20 19:26 47.356552 -118.614761 251 8053ft 133kts
16-Oct-20 19:27 47.349332 -118.666515 265 8009ft 128kts
16-Oct-20 19:28 47.335249 -118.715186 244 8087ft 134kts
16-Oct-20 19:29 47.320828 -118.765990 266 7936ft 132kts
16-Oct-20 19:30 47.319162 -118.818576 265 8062ft 121kts
16-Oct-20 19:31 47.305018 -118.867671 245 7996ft 135kts
16-Oct-20 19:32 47.288423 -118.916571 260 7941ft 130kts
16-Oct-20 19:33 47.282133 -118.967289 264 8039ft 127kts
16-Oct-20 19:34 47.274446 -119.018793 256 8023ft 130kts
16-Oct-20 19:35 47.261396 -119.069310 254 7952ft 136kts
16-Oct-20 19:36 47.248101 -119.119874 256 8043ft 127kts
16-Oct-20 19:37 47.235014 -119.169370 251 8063ft 138kts
16-Oct-20 19:38 47.221504 -119.223081 262 7964ft 136kts
16-Oct-20 19:39 47.216833 -119.275739 272 7980ft 130kts
16-Oct-20 19:40 47.203034 -119.325989 247 8026ft 135kts
16-Oct-20 19:41 47.192908 -119.379146 263 7991ft 136kts
16-Oct-20 19:42 47.190219 -119.433269 268 7915ft 132kts
16-Oct-20 19:43 47.183506 -119.486137 266 7977ft 135kts
16-Oct-20 19:44 47.179965 -119.540299 274 7886ft 143kts
16-Oct-20 19:45 47.171741 -119.593956 251 8034ft 135kts
16-Oct-20 19:46 47.158670 -119.643861 259 8181ft 130kts
16-Oct-20 19:47 47.146471 -119.697798 259 8008ft 139kts
16-Oct-20 19:48 47.137067 -119.752513 266 8096ft 122kts
16-Oct-20 19:49 47.129312 -119.806705 245 7426ft 161kts
16-Oct-20 19:50 47.112567 -119.853081 242 8273ft 120kts
16-Oct-20 19:51 47.098197 -119.903048 268 7899ft 138kts
16-Oct-20 19:52 47.096999 -119.957066 276 7874ft 128kts
16-Oct-20 19:53 47.102051 -120.008586 281 7916ft 122kts
16-Oct-20 19:54 47.093050 -120.058255 258 7990ft 135kts
16-Oct-20 19:55 47.085048 -120.113849 273 7366ft 142kts
16-Oct-20 19:56 47.086500 -120.174806 268 6221ft 152kts
16-Oct-20 19:57 47.075605 -120.230459 250 5971ft 137kts
16-Oct-20 19:58 47.062660 -120.280246 263 5931ft 130kts
16-Oct-20 19:59 47.061261 -120.333062 273 5521ft 144kts
16-Oct-20 20:00 47.058885 -120.388555 260 4424ft 134kts
16-Oct-20 20:01 47.050686 -120.441534 261 3324ft 125kts
16-Oct-20 20:02 47.042487 -120.492354 282 2790ft 125kts
16-Oct-20 20:03 47.044887 -120.531209 231 2793ft 133kts
16-Oct-20 20:04 47.017600 -120.527634 138 2500ft 120kts
16-Oct-20 20:05 47.027244 -120.517522 316 1973ft 72kts
16-Oct-20 20:06 47.035300 -120.529707 311 1760ft 26kts
16-Oct-20 20:07 47.031572 -120.533108 211 1735ft 17kts
16-Oct-20 20:08 47.029762 -120.534920 267 1725ft 0kts

Navigation Log

Ident Type
Flight plan parsing failed, navigation log unavailable